Welcome to the New NWS' Forecast!
Most changes are behind the scenes, but click here for differences you might notice.

Terminal Aerodrome Forecast (TAF)

Issued by National Weather Service (NWS)

                            
000
FTUS42 KMFL 212112 AAA
TAFMIA
TAF AMD
KMIA 212112Z 2121/2224 08010KT P6SM VCSH SCT030 BKN090 BKN200
     FM220000 08004KT P6SM FEW030 SCT060 BKN250
     FM220300 VRB04KT P6SM FEW040 SCT250
     FM221300 11010KT P6SM SCT030 BKN250 PROB30 2213/2218 6SM TSRA
      SCT025CB BKN050=